createdAt,value
2023-03-26T00:01:46.905Z,9.00
2023-03-26T00:04:22.043Z,9.00
2023-03-26T00:06:56.140Z,9.00
2023-03-26T00:09:30.215Z,9.00
2023-03-26T00:12:03.358Z,9.02
2023-03-26T00:14:36.433Z,9.00
2023-03-26T00:17:09.673Z,9.00
2023-03-26T00:19:43.287Z,9.00
2023-03-26T00:22:17.195Z,9.04
2023-03-26T00:24:51.394Z,9.10
2023-03-26T00:27:25.474Z,9.10
2023-03-26T00:29:59.899Z,9.10
2023-03-26T00:32:34.049Z,9.10
2023-03-26T00:35:08.051Z,9.10
2023-03-26T00:37:43.211Z,9.20
2023-03-26T00:40:17.600Z,9.20
2023-03-26T00:42:50.568Z,9.20
2023-03-26T00:45:23.914Z,9.20
2023-03-26T00:47:57.113Z,9.20
2023-03-26T00:50:30.315Z,9.20
2023-03-26T00:53:03.327Z,9.20
2023-03-26T00:55:36.686Z,9.20
2023-03-26T01:11:40.842Z,9.70
2023-03-26T01:14:19.889Z,9.70
2023-03-26T01:16:56.331Z,9.60
2023-03-26T01:27:33.774Z,9.40
2023-03-26T01:30:15.231Z,9.40
2023-03-26T01:33:04.251Z,9.40
2023-03-26T01:35:48.741Z,9.30
2023-03-26T01:38:39.560Z,9.30
2023-03-26T01:41:15.669Z,9.20
2023-03-26T01:43:55.795Z,9.18
2023-03-26T01:46:30.678Z,9.10
2023-03-26T01:49:05.672Z,9.00
2023-03-26T01:51:40.225Z,9.00
2023-03-26T01:54:19.564Z,8.94
2023-03-26T01:57:04.977Z,8.90
2023-03-26T02:00:01.736Z,8.90
2023-03-26T02:02:46.601Z,8.90
2023-03-26T02:05:25.542Z,8.90
2023-03-26T02:08:09.808Z,8.90
2023-03-26T02:10:46.898Z,8.92
2023-03-26T02:13:20.584Z,9.00
2023-03-26T02:16:05.618Z,9.00
2023-03-26T02:18:39.339Z,9.00
2023-03-26T02:21:20.458Z,9.08
2023-03-26T02:24:03.143Z,9.10
2023-03-26T02:26:38.944Z,9.10
2023-03-26T02:29:20.702Z,9.10
2023-03-26T02:31:54.570Z,9.10
2023-03-26T02:34:28.040Z,9.10
2023-03-26T02:37:01.558Z,9.10
2023-03-26T02:39:34.620Z,9.00
2023-03-26T02:42:13.371Z,9.00
2023-03-26T02:44:51.549Z,8.94
2023-03-26T02:47:24.918Z,8.96
2023-03-26T02:49:57.945Z,9.00
2023-03-26T02:52:54.280Z,9.00
2023-03-26T02:55:27.504Z,9.00
2023-03-26T02:58:01.634Z,9.00
2023-03-26T03:00:41.126Z,9.08
2023-03-26T03:03:30.213Z,9.10
2023-03-26T03:06:23.544Z,9.10
2023-03-26T03:08:58.316Z,9.12
2023-03-26T03:11:43.951Z,9.20
2023-03-26T03:14:17.080Z,9.10
2023-03-26T03:16:50.223Z,9.10
2023-03-26T03:19:23.631Z,9.10
2023-03-26T03:21:56.760Z,9.10
2023-03-26T03:24:30.166Z,9.04
2023-03-26T03:27:03.240Z,9.00
2023-03-26T03:29:41.566Z,9.00
2023-03-26T03:32:37.756Z,9.00
2023-03-26T03:35:12.217Z,8.98
2023-03-26T03:37:46.284Z,8.90
2023-03-26T03:40:20.487Z,8.90
2023-03-26T03:42:54.046Z,8.90
2023-03-26T03:45:35.169Z,8.90
2023-03-26T03:48:21.628Z,8.90
2023-03-26T03:50:55.184Z,8.90
2023-03-26T03:53:37.300Z,8.90
2023-03-26T03:56:14.645Z,8.90
2023-03-26T03:59:10.470Z,8.80
2023-03-26T04:01:46.962Z,8.80
2023-03-26T04:04:46.568Z,8.80
2023-03-26T04:07:22.379Z,8.78
2023-03-26T04:10:30.922Z,8.72
2023-03-26T04:13:19.472Z,8.78
2023-03-26T04:16:01.695Z,8.80
2023-03-26T04:18:36.937Z,8.80
2023-03-26T04:21:16.073Z,8.80
2023-03-26T04:23:50.426Z,8.80
2023-03-26T04:26:52.892Z,8.90
2023-03-26T04:29:38.454Z,8.90
2023-03-26T04:32:19.673Z,9.00
2023-03-26T04:34:53.293Z,9.00
2023-03-26T04:37:34.699Z,9.02
2023-03-26T04:40:20.735Z,9.10
2023-03-26T04:43:03.622Z,9.10
2023-03-26T04:45:57.625Z,9.20
2023-03-26T04:48:32.439Z,9.22
2023-03-26T04:51:08.023Z,9.30
2023-03-26T04:53:41.270Z,9.30
2023-03-26T04:56:41.532Z,9.32
2023-03-26T04:59:30.485Z,9.40
2023-03-26T05:02:05.289Z,9.40
2023-03-26T05:04:46.109Z,9.40
2023-03-26T05:07:25.190Z,9.40
2023-03-26T05:10:03.588Z,9.30
2023-03-26T05:13:05.902Z,9.30
2023-03-26T05:15:42.019Z,9.30
2023-03-26T05:18:38.519Z,9.30
2023-03-26T05:21:12.252Z,9.30
2023-03-26T05:23:45.607Z,9.30
2023-03-26T05:26:26.275Z,9.30
2023-03-26T05:28:59.388Z,9.30
2023-03-26T05:31:39.199Z,9.30
2023-03-26T05:34:12.319Z,9.30
2023-03-26T05:36:45.817Z,9.30
2023-03-26T05:39:46.034Z,9.40
2023-03-26T05:42:54.605Z,9.40
2023-03-26T05:45:40.610Z,9.40
2023-03-26T05:48:21.883Z,9.48
2023-03-26T05:50:56.985Z,9.50
2023-03-26T05:53:31.302Z,9.50
2023-03-26T05:56:22.938Z,9.50
2023-03-26T05:59:28.220Z,9.60
2023-03-26T06:02:19.765Z,9.60
2023-03-26T06:05:13.945Z,9.62
2023-03-26T06:07:58.325Z,9.70
2023-03-26T06:10:40.480Z,9.80
2023-03-26T06:13:13.797Z,9.80
2023-03-26T06:15:47.014Z,9.90
2023-03-26T06:18:37.378Z,9.94
2023-03-26T06:21:36.124Z,10.00
2023-03-26T06:24:16.742Z,10.00
2023-03-26T06:27:10.856Z,10.08
2023-03-26T06:30:11.279Z,10.10
2023-03-26T06:32:51.608Z,10.10
2023-03-26T06:35:30.198Z,10.12
2023-03-26T06:38:03.378Z,10.12
2023-03-26T06:40:37.498Z,10.18
2023-03-26T06:43:25.684Z,10.20
2023-03-26T06:46:17.604Z,10.20
2023-03-26T06:49:09.063Z,10.20
2023-03-26T06:52:02.252Z,10.30
2023-03-26T06:54:53.571Z,10.36
2023-03-26T06:57:46.102Z,10.40
2023-03-26T07:00:25.708Z,10.50
2023-03-26T07:03:17.679Z,10.70
2023-03-26T07:06:10.827Z,10.80
2023-03-26T07:08:57.597Z,10.88
2023-03-26T07:12:06.004Z,10.90
2023-03-26T07:14:42.038Z,11.00
2023-03-26T07:17:33.129Z,11.00
2023-03-26T07:20:18.181Z,11.00
2023-03-26T07:22:53.227Z,11.00
2023-03-26T07:25:57.313Z,10.92
2023-03-26T07:29:06.403Z,11.00
2023-03-26T07:32:06.095Z,11.20
2023-03-26T07:34:57.166Z,11.30
2023-03-26T07:37:50.502Z,11.40
2023-03-26T07:40:54.382Z,11.50
2023-03-26T07:44:17.682Z,11.50
2023-03-26T07:47:12.936Z,11.50
2023-03-26T07:50:08.558Z,11.54
2023-03-26T07:53:03.113Z,11.60
2023-03-26T07:55:58.348Z,11.70
2023-03-26T07:59:04.636Z,11.78
2023-03-26T08:02:09.124Z,11.80
2023-03-26T08:05:01.562Z,11.82
2023-03-26T08:08:16.611Z,12.00
2023-03-26T08:11:16.092Z,12.20
2023-03-26T08:14:08.772Z,12.30
2023-03-26T08:16:51.573Z,12.40
2023-03-26T08:19:41.252Z,12.60
2023-03-26T08:22:21.020Z,12.70
2023-03-26T08:25:13.983Z,12.60
2023-03-26T08:27:57.813Z,12.34
2023-03-26T08:30:32.747Z,12.10
2023-03-26T08:33:16.960Z,12.00
2023-03-26T08:35:50.917Z,12.00
2023-03-26T08:38:24.685Z,12.30
2023-03-26T08:41:48.560Z,12.60
2023-03-26T08:45:14.632Z,12.90
2023-03-26T08:48:36.265Z,13.66
2023-03-26T08:52:16.576Z,14.20
2023-03-26T08:55:39.452Z,14.30
2023-03-26T08:58:58.362Z,14.20
2023-03-26T09:02:20.873Z,14.50
2023-03-26T09:05:43.364Z,15.54
2023-03-26T09:08:59.316Z,16.00
2023-03-26T09:11:56.124Z,16.92
2023-03-26T09:15:17.595Z,16.58
2023-03-26T09:18:43.286Z,16.30
2023-03-26T09:21:49.993Z,15.50
2023-03-26T09:25:19.174Z,14.36
2023-03-26T09:28:24.771Z,13.38
2023-03-26T09:31:33.325Z,12.64
2023-03-26T09:34:30.166Z,11.82
2023-03-26T09:37:19.312Z,11.12
2023-03-26T09:40:06.529Z,10.52
2023-03-26T09:42:52.430Z,10.20
2023-03-26T09:45:59.907Z,10.00
2023-03-26T09:49:01.264Z,10.10
2023-03-26T09:51:57.241Z,10.40
2023-03-26T09:55:20.443Z,10.90
2023-03-26T09:58:18.005Z,12.46
2023-03-26T10:01:01.087Z,14.18
2023-03-26T10:03:47.310Z,14.60
2023-03-26T10:06:44.651Z,14.60
2023-03-26T10:09:48.544Z,14.30
2023-03-26T10:12:33.599Z,14.00
2023-03-26T10:15:30.223Z,13.90
2023-03-26T10:18:27.120Z,14.20
2023-03-26T10:21:10.925Z,14.40
2023-03-26T10:24:02.915Z,14.70
2023-03-26T10:27:10.123Z,15.10
2023-03-26T10:30:16.683Z,15.00
2023-03-26T10:32:59.603Z,15.18
2023-03-26T10:35:48.575Z,14.82
2023-03-26T10:38:34.361Z,14.44
2023-03-26T10:41:15.352Z,14.30
2023-03-26T10:44:13.747Z,15.88
2023-03-26T10:47:42.960Z,17.20
2023-03-26T10:50:51.033Z,17.44
2023-03-26T10:53:36.051Z,17.40
2023-03-26T10:56:22.587Z,17.28
2023-03-26T10:58:58.108Z,16.90
2023-03-26T11:01:43.375Z,16.50
2023-03-26T11:04:38.429Z,16.12
2023-03-26T11:07:22.590Z,15.56
2023-03-26T11:10:03.708Z,14.84
2023-03-26T11:12:46.261Z,14.16
2023-03-26T11:15:28.234Z,13.80
2023-03-26T11:18:16.311Z,14.14
2023-03-26T11:20:57.240Z,17.20
2023-03-26T11:24:06.137Z,20.46
2023-03-26T11:26:50.920Z,21.90
2023-03-26T11:29:46.760Z,21.88
2023-03-26T11:32:24.307Z,24.18
2023-03-26T11:35:08.351Z,25.76
2023-03-26T11:37:45.809Z,26.70
2023-03-26T11:40:25.331Z,27.10
2023-03-26T11:43:09.162Z,27.64
2023-03-26T11:45:46.255Z,28.46
2023-03-26T11:48:24.651Z,28.42
2023-03-26T11:51:04.538Z,25.96
2023-03-26T11:53:39.890Z,23.10
2023-03-26T11:56:22.349Z,20.88
2023-03-26T11:59:01.541Z,19.22
2023-03-26T12:01:50.851Z,17.82
2023-03-26T12:04:35.222Z,16.74
2023-03-26T12:07:18.988Z,15.94
2023-03-26T12:10:18.050Z,15.44
2023-03-26T12:12:53.636Z,15.10
2023-03-26T12:15:28.661Z,14.90
2023-03-26T12:18:25.142Z,14.70
2023-03-26T12:21:11.375Z,14.42
2023-03-26T12:24:01.681Z,14.20
2023-03-26T12:26:42.670Z,13.82
2023-03-26T12:29:18.275Z,13.70
2023-03-26T12:32:08.850Z,13.80
2023-03-26T12:34:42.717Z,14.00
2023-03-26T12:37:39.184Z,14.74
2023-03-26T12:40:36.984Z,15.80
2023-03-26T12:44:53.520Z,16.10
2023-03-26T12:47:59.834Z,16.40
2023-03-26T12:49:23.371Z,16.30
2023-03-26T12:52:01.456Z,16.10
2023-03-26T12:54:48.654Z,15.90
2023-03-26T12:57:26.950Z,15.70
2023-03-26T13:00:20.349Z,15.80
2023-03-26T13:03:23.840Z,15.90
2023-03-26T13:06:19.946Z,16.24
2023-03-26T13:09:29.331Z,16.88
2023-03-26T13:12:14.844Z,17.20
2023-03-26T13:15:23.857Z,17.78
2023-03-26T13:18:13.475Z,19.68
2023-03-26T13:21:02.229Z,21.46
2023-03-26T13:23:48.283Z,22.16
2023-03-26T13:26:39.275Z,21.46
2023-03-26T13:29:22.052Z,21.00
2023-03-26T13:32:06.131Z,20.74
2023-03-26T13:34:49.251Z,20.20
2023-03-26T13:37:32.220Z,20.00
2023-03-26T13:40:25.582Z,19.80
2023-03-26T13:43:33.996Z,19.54
2023-03-26T13:46:21.497Z,19.30
2023-03-26T13:48:59.822Z,18.80
2023-03-26T13:51:40.889Z,18.76
2023-03-26T13:54:24.241Z,18.90
2023-03-26T13:57:06.331Z,18.64
2023-03-26T13:59:45.587Z,18.12
2023-03-26T14:02:26.003Z,17.64
2023-03-26T14:05:08.478Z,17.30
2023-03-26T14:07:48.402Z,17.30
2023-03-26T14:10:27.667Z,17.20
2023-03-26T14:13:08.856Z,16.90
2023-03-26T14:15:47.873Z,16.60
2023-03-26T14:18:35.007Z,16.28
2023-03-26T14:21:36.799Z,15.90
2023-03-26T14:24:47.301Z,15.50
2023-03-26T14:27:46.278Z,15.20
2023-03-26T14:30:51.049Z,15.10
2023-03-26T14:33:45.693Z,15.00
2023-03-26T14:36:35.730Z,14.90
2023-03-26T14:39:35.378Z,14.90
2023-03-26T14:42:26.046Z,15.00
2023-03-26T14:45:51.035Z,15.10
2023-03-26T14:49:41.712Z,15.20
2023-03-26T14:52:22.613Z,15.10
2023-03-26T14:55:01.336Z,15.00
2023-03-26T14:58:08.952Z,14.80
2023-03-26T15:01:28.247Z,14.60
2023-03-26T15:04:57.763Z,14.40
2023-03-26T15:08:18.581Z,14.20
2023-03-26T15:11:22.739Z,14.04
2023-03-26T15:14:46.207Z,14.00
2023-03-26T15:17:47.276Z,13.90
2023-03-26T15:21:27.941Z,14.00
2023-03-26T15:24:24.843Z,14.00
2023-03-26T15:27:31.710Z,13.90
2023-03-26T15:30:58.101Z,13.96
2023-03-26T15:34:38.621Z,14.10
2023-03-26T15:38:00.163Z,14.30
2023-03-26T15:40:48.105Z,14.20
2023-03-26T15:43:22.819Z,14.10
2023-03-26T15:46:26.366Z,14.00
2023-03-26T15:49:16.711Z,13.90
2023-03-26T15:52:00.152Z,13.80
2023-03-26T15:54:39.895Z,13.70
2023-03-26T15:57:27.676Z,13.60
2023-03-26T16:00:22.486Z,13.40
2023-03-26T16:03:17.683Z,13.20
2023-03-26T16:06:28.468Z,12.86
2023-03-26T16:09:22.236Z,12.50
2023-03-26T16:12:00.370Z,12.16
2023-03-26T16:14:48.499Z,11.86
2023-03-26T16:17:25.730Z,11.70
2023-03-26T16:20:21.215Z,11.50
2023-03-26T16:23:03.860Z,11.30
2023-03-26T16:25:58.447Z,11.22
2023-03-26T16:28:59.414Z,11.10
2023-03-26T16:31:39.425Z,11.00
2023-03-26T16:34:42.838Z,10.90
2023-03-26T16:37:50.318Z,10.90
2023-03-26T16:40:50.544Z,10.80
2023-03-26T16:44:02.534Z,10.80
2023-03-26T16:46:50.558Z,10.68
2023-03-26T16:49:46.263Z,10.50
2023-03-26T16:52:43.517Z,10.38
2023-03-26T16:55:27.745Z,10.20
2023-03-26T16:58:12.434Z,10.10
2023-03-26T17:00:52.685Z,10.00
2023-03-26T17:03:52.458Z,10.00
2023-03-26T17:07:05.892Z,9.90
2023-03-26T17:09:52.745Z,9.90
2023-03-26T17:12:35.113Z,9.90
2023-03-26T17:15:30.434Z,9.80
2023-03-26T17:18:29.125Z,9.70
2023-03-26T17:21:10.790Z,9.60
2023-03-26T17:24:04.155Z,9.50
2023-03-26T17:26:52.355Z,9.30
2023-03-26T17:29:58.178Z,9.20
2023-03-26T17:33:01.052Z,9.10
2023-03-26T17:35:47.125Z,9.00
2023-03-26T17:39:42.557Z,9.00
2023-03-26T17:42:30.854Z,8.90
2023-03-26T17:45:04.732Z,8.80
2023-03-26T17:47:43.624Z,8.80
2023-03-26T17:50:22.868Z,8.70
2023-03-26T17:53:01.887Z,8.70
2023-03-26T17:55:39.418Z,8.70
2023-03-26T17:58:28.324Z,8.70
2023-03-26T18:01:14.387Z,8.72
2023-03-26T18:03:51.598Z,8.70
2023-03-26T18:06:52.687Z,8.70
2023-03-26T18:09:46.512Z,8.70
2023-03-26T18:12:44.800Z,8.70
2023-03-26T18:15:36.530Z,8.60
2023-03-26T18:18:20.089Z,8.60
2023-03-26T18:20:55.280Z,8.60
2023-03-26T18:23:37.258Z,8.60
2023-03-26T18:26:21.081Z,8.60
2023-03-26T18:29:11.693Z,8.62
2023-03-26T18:31:51.985Z,8.70
2023-03-26T18:34:27.440Z,8.70
2023-03-26T18:37:17.906Z,8.76
2023-03-26T18:40:12.131Z,8.80
2023-03-26T18:42:48.826Z,8.82
2023-03-26T18:45:31.094Z,8.90
2023-03-26T18:48:07.021Z,8.90
2023-03-26T18:50:43.312Z,8.90
2023-03-26T18:53:22.407Z,8.90
2023-03-26T18:55:55.865Z,8.90
2023-03-26T18:58:31.572Z,8.90
2023-03-26T19:01:10.170Z,8.90
2023-03-26T19:03:50.955Z,8.90
2023-03-26T19:06:26.159Z,8.90
2023-03-26T19:09:00.102Z,8.90
2023-03-26T19:11:38.515Z,8.90
2023-03-26T19:14:18.230Z,8.90
2023-03-26T19:16:57.098Z,8.90
2023-03-26T19:19:37.791Z,8.90
2023-03-26T19:22:14.057Z,8.88
2023-03-26T19:24:47.467Z,8.84
2023-03-26T19:27:20.766Z,8.82
2023-03-26T19:29:54.420Z,8.80
2023-03-26T19:32:34.754Z,8.80
2023-03-26T19:35:21.125Z,8.80
2023-03-26T19:37:57.616Z,8.76
2023-03-26T19:40:34.934Z,8.70
2023-03-26T19:43:11.728Z,8.70
2023-03-26T19:46:00.250Z,8.70
2023-03-26T19:48:45.388Z,8.60
2023-03-26T19:51:33.012Z,8.60
2023-03-26T19:54:14.368Z,8.60
2023-03-26T19:56:47.647Z,8.60
2023-03-26T19:59:20.747Z,8.60
2023-03-26T20:01:54.012Z,8.60
2023-03-26T20:04:27.480Z,8.56
2023-03-26T20:07:01.212Z,8.60
2023-03-26T20:09:34.362Z,8.60
2023-03-26T20:12:07.644Z,8.60
2023-03-26T20:14:45.495Z,8.60
2023-03-26T20:17:22.484Z,8.62
2023-03-26T20:19:55.619Z,8.70
2023-03-26T20:22:29.576Z,8.70
2023-03-26T20:25:03.478Z,8.70
2023-03-26T20:27:37.113Z,8.70
2023-03-26T20:30:16.431Z,8.70
2023-03-26T20:33:11.917Z,8.72
2023-03-26T20:35:46.183Z,8.80
2023-03-26T20:38:21.702Z,8.80
2023-03-26T20:40:55.491Z,8.80
2023-03-26T20:43:30.436Z,8.80
2023-03-26T20:46:04.233Z,8.80
2023-03-26T20:48:37.955Z,8.80
2023-03-26T20:51:14.157Z,8.80
2023-03-26T20:53:48.566Z,8.80
2023-03-26T20:56:22.880Z,8.80
2023-03-26T20:59:09.771Z,8.80
2023-03-26T21:01:43.931Z,8.80
2023-03-26T21:04:18.068Z,8.80
2023-03-26T21:06:51.881Z,8.78
2023-03-26T21:09:35.655Z,8.70
2023-03-26T21:12:18.121Z,8.70
2023-03-26T21:14:52.746Z,8.70
2023-03-26T21:17:30.753Z,8.70
2023-03-26T21:20:12.089Z,8.60
2023-03-26T21:22:53.323Z,8.60
2023-03-26T21:25:37.279Z,8.60
2023-03-26T21:28:31.989Z,8.58
2023-03-26T21:31:19.519Z,8.58
2023-03-26T21:33:55.389Z,8.56
2023-03-26T21:36:30.022Z,8.60
2023-03-26T21:39:06.648Z,8.58
2023-03-26T21:42:04.730Z,8.58
2023-03-26T21:44:40.445Z,8.58
2023-03-26T21:47:15.433Z,8.60
2023-03-26T21:49:49.777Z,8.60
2023-03-26T21:52:24.664Z,8.60
2023-03-26T21:55:01.021Z,8.60
2023-03-26T21:57:55.121Z,8.60
2023-03-26T22:00:43.175Z,8.60
2023-03-26T22:03:24.094Z,8.60
2023-03-26T22:06:04.640Z,8.60
2023-03-26T22:08:40.918Z,8.60
2023-03-26T22:11:15.186Z,8.60
2023-03-26T22:13:48.241Z,8.60
2023-03-26T22:16:25.246Z,8.60
2023-03-26T22:18:59.148Z,8.60
2023-03-26T22:21:33.914Z,8.60
2023-03-26T22:24:07.745Z,8.60
2023-03-26T22:26:40.927Z,8.60
2023-03-26T22:29:15.090Z,8.60
2023-03-26T22:31:48.215Z,8.60
2023-03-26T22:34:21.488Z,8.60
2023-03-26T22:36:54.569Z,8.60
2023-03-26T22:39:27.660Z,8.60
2023-03-26T22:42:02.268Z,8.60
2023-03-26T22:44:35.370Z,8.52
2023-03-26T22:47:09.558Z,8.50
2023-03-26T22:49:42.825Z,8.50
2023-03-26T22:52:15.875Z,8.50
2023-03-26T22:54:49.020Z,8.50
2023-03-26T22:57:23.114Z,8.48
2023-03-26T22:59:56.337Z,8.48
2023-03-26T23:02:29.631Z,8.40
2023-03-26T23:05:02.971Z,8.40
2023-03-26T23:07:36.051Z,8.40
2023-03-26T23:10:11.348Z,8.40
2023-03-26T23:12:44.562Z,8.34
2023-03-26T23:15:17.886Z,8.30
2023-03-26T23:17:54.831Z,8.30
2023-03-26T23:20:29.361Z,8.30
2023-03-26T23:23:02.651Z,8.22
2023-03-26T23:25:35.852Z,8.20
2023-03-26T23:28:10.130Z,8.20
2023-03-26T23:30:47.722Z,8.20
2023-03-26T23:33:22.397Z,8.12
2023-03-26T23:36:00.048Z,8.10
2023-03-26T23:38:43.432Z,8.10
2023-03-26T23:41:19.926Z,8.08
2023-03-26T23:43:55.813Z,8.00
2023-03-26T23:46:33.245Z,8.00
2023-03-26T23:49:06.709Z,8.00
2023-03-26T23:51:39.779Z,8.00
2023-03-26T23:54:12.969Z,8.00
2023-03-26T23:56:46.266Z,8.00
2023-03-26T23:59:19.339Z,7.90
